PAMR/MRI METAR and TAF weather

Enter ICAO airport designator
Station Type Date Time Source
PAMR METAR 2020/09/27 16:53 UTC NOAA

PAMR 271653Z 34010KT 10SM CLR 09/03 A2909 RMK AO2 SLP850 T00890028


Station Type Date Time Source
PAMR Decoded METAR 2020/09/27 16:53 UTC NOAA

ANCHORAGE MERRILL FIELD, AK, United States (PAMR) 61-13N 149-51W
Sep 27, 2020 - 12:53 PM EDT / 2020.09.27 1653 UTC
Wind: from the NNW (340 degrees) at 12 MPH (10 KT):0
Visibility: 10 mile(s):0
Sky conditions: clear
Temperature: 48.0 F (8.9 C)
Dew Point: 37.0 F (2.8 C)
Relative Humidity: 65%
Pressure (altimeter): 29.09 in. Hg (985 hPa)
ob: PAMR 271653Z 34010KT 10SM CLR 09/03 A2909 RMK AO2 SLP850 T00890028
cycle: 17

Station Type Date Time Source
PAMR TAF UTC NOAA

Error!

Example: see airport list